Time;durP1;ratioP1;P1;durP2;ratioP2;P2;SDS_P1;SDS_P2;PMS_P1;PMS_P2;Temp;Humidity;BMP_temperature;BMP_pressure;BME280_temperature;BME280_humidity;BME280_pressure;Samples;Min_cycle;Max_cycle;Signal;HPM_P1;HPM_P2
2023/11/01 00:02:32;;;;;;;2.87;2.60;;;19.70;66.20;;;;;;4992956;28;20508;-84
2023/11/01 00:05:00;;;;;;;3.63;2.40;;;19.80;66.80;;;;;;4990422;28;20471;-83
2023/11/01 00:07:32;;;;;;;2.47;2.27;;;19.80;66.90;;;;;;4994224;28;20451;-84
2023/11/01 00:10:39;;;;;;;5.73;2.83;;;19.80;67.20;;;;;;4996999;28;20457;-84
2023/11/01 00:13:07;;;;;;;3.40;2.83;;;19.80;67.60;;;;;;4991552;28;20452;-84
2023/11/01 00:15:36;;;;;;;2.57;2.37;;;19.80;67.60;;;;;;4997779;28;20453;-84
2023/11/01 00:18:05;;;;;;;3.50;2.77;;;19.80;67.70;;;;;;4998027;28;20468;-83
2023/11/01 00:20:36;;;;;;;2.23;2.03;;;19.80;68.10;;;;;;5001609;28;20508;-84
2023/11/01 00:23:10;;;;;;;2.97;2.60;;;19.90;68.30;;;;;;4982371;28;20454;-85
2023/11/01 00:25:40;;;;;;;2.70;2.17;;;19.80;68.40;;;;;;4999090;28;20480;-84
2023/11/01 00:28:08;;;;;;;2.60;2.40;;;19.90;68.60;;;;;;4998505;28;20447;-84
2023/11/01 00:30:41;;;;;;;2.30;2.10;;;19.90;68.70;;;;;;5014143;28;20460;-85
2023/11/01 00:33:09;;;;;;;3.50;2.80;;;19.90;68.90;;;;;;5008863;28;21023;-84
2023/11/01 00:35:38;;;;;;;2.60;2.50;;;19.90;69.50;;;;;;5003257;28;20443;-84
2023/11/01 00:38:09;;;;;;;3.87;2.33;;;19.90;69.00;;;;;;5004366;28;20476;-84
2023/11/01 00:40:39;;;;;;;2.83;2.37;;;19.90;69.20;;;;;;4994054;28;20481;-84
2023/11/01 00:43:09;;;;;;;2.80;2.53;;;19.90;69.20;;;;;;4994097;28;20436;-84
2023/11/01 00:45:40;;;;;;;6.80;2.67;;;19.90;69.20;;;;;;4999943;28;20439;-83
2023/11/01 00:48:09;;;;;;;2.90;2.40;;;19.90;69.90;;;;;;4997156;28;20505;-84
2023/11/01 00:50:37;;;;;;;3.37;2.13;;;19.90;69.50;;;;;;5000147;28;20512;-82
2023/11/01 00:53:05;;;;;;;2.60;2.23;;;19.90;69.90;;;;;;4994196;28;20499;-84
2023/11/01 00:55:35;;;;;;;2.40;2.27;;;19.90;69.90;;;;;;4987911;28;20476;-82
2023/11/01 00:58:08;;;;;;;2.30;2.20;;;19.90;69.80;;;;;;4998872;28;20476;-83
2023/11/01 01:00:43;;;;;;;2.63;2.43;;;19.90;70.20;;;;;;4998301;28;20456;-84
2023/11/01 01:03:41;;;;;;;2.10;1.90;;;19.90;70.40;;;;;;5005104;28;20459;-83
2023/11/01 01:06:25;;;;;;;3.07;2.40;;;19.90;70.40;;;;;;4993026;28;20466;-84
2023/11/01 01:09:19;;;;;;;2.50;2.30;;;19.90;70.00;;;;;;4988097;28;20442;-83
2023/11/01 01:11:53;;;;;;;3.10;2.37;;;19.90;70.50;;;;;;4988274;28;20450;-85
2023/11/01 01:14:27;;;;;;;2.13;2.00;;;19.90;70.30;;;;;;5004506;28;20457;-84
2023/11/01 01:16:58;;;;;;;3.53;2.30;;;19.90;70.70;;;;;;4995093;28;20473;-83
2023/11/01 01:19:30;;;;;;;3.90;2.60;;;19.90;70.80;;;;;;5008081;28;20452;-85
2023/11/01 01:22:02;;;;;;;5.23;2.23;;;19.90;70.90;;;;;;4993510;28;20474;-84
2023/11/01 01:24:31;;;;;;;2.33;2.20;;;19.90;71.10;;;;;;5001675;28;20437;-85
2023/11/01 01:27:02;;;;;;;2.43;1.80;;;19.90;71.00;;;;;;4989253;28;20500;-83
2023/11/01 01:29:30;;;;;;;2.20;2.10;;;19.90;71.00;;;;;;4994308;28;20437;-82
2023/11/01 01:32:00;;;;;;;2.40;1.93;;;19.90;71.30;;;;;;4998751;28;20485;-84
2023/11/01 01:34:28;;;;;;;5.90;2.10;;;19.90;71.40;;;;;;5000744;28;20449;-83
2023/11/01 01:36:56;;;;;;;2.77;2.10;;;19.90;71.30;;;;;;5009677;28;20465;-85
2023/11/01 01:39:27;;;;;;;2.90;2.33;;;19.90;71.30;;;;;;5002761;28;20472;-84
2023/11/01 01:41:56;;;;;;;3.57;2.20;;;19.90;71.40;;;;;;5001241;28;20469;-83
2023/11/01 01:44:24;;;;;;;3.93;1.80;;;19.90;71.40;;;;;;4995251;28;20525;-83
2023/11/01 01:46:52;;;;;;;3.00;2.30;;;19.90;71.50;;;;;;4998243;28;20480;-84
2023/11/01 01:49:22;;;;;;;3.33;1.90;;;19.90;71.60;;;;;;4991680;28;20451;-84
2023/11/01 01:52:00;;;;;;;1.87;1.77;;;19.90;71.60;;;;;;5000080;28;20456;-83
2023/11/01 01:54:31;;;;;;;2.30;2.10;;;19.90;71.60;;;;;;4998946;28;20441;-83
2023/11/01 01:57:05;;;;;;;2.60;2.40;;;19.90;71.60;;;;;;4993944;28;20468;-85
2023/11/01 01:59:50;;;;;;;3.00;2.20;;;19.90;71.90;;;;;;4993142;28;20453;-83
2023/11/01 02:02:26;;;;;;;2.10;1.90;;;19.90;72.00;;;;;;4991636;28;20450;-83
2023/11/01 02:04:59;;;;;;;2.20;2.10;;;19.90;71.90;;;;;;4993501;28;20472;-83
2023/11/01 02:07:31;;;;;;;5.13;1.90;;;19.90;72.00;;;;;;4995663;28;20524;-84
2023/11/01 02:10:03;;;;;;;2.47;2.00;;;19.90;72.20;;;;;;5003338;28;20453;-83
2023/11/01 02:12:31;;;;;;;2.20;2.00;;;19.90;72.10;;;;;;4996167;28;20476;-83
2023/11/01 02:15:01;;;;;;;2.00;1.90;;;19.90;72.10;;;;;;4988800;28;20489;-83
2023/11/01 02:17:32;;;;;;;2.60;1.87;;;20.00;72.30;;;;;;4994203;28;20450;-83
2023/11/01 02:20:03;;;;;;;2.00;1.90;;;19.90;72.40;;;;;;4995636;28;21015;-84
2023/11/01 02:22:34;;;;;;;5.30;2.00;;;19.90;72.40;;;;;;5003754;28;20441;-83
2023/11/01 02:25:10;;;;;;;2.13;2.03;;;19.90;72.40;;;;;;4990695;28;20532;-83
2023/11/01 02:27:43;;;;;;;6.67;2.17;;;19.90;72.70;;;;;;4992954;28;20453;-84
2023/11/01 02:30:16;;;;;;;2.43;2.03;;;19.90;72.60;;;;;;5000884;28;20511;-83
2023/11/01 02:32:48;;;;;;;2.10;2.00;;;19.90;72.70;;;;;;4985331;28;20474;-84
2023/11/01 02:35:21;;;;;;;2.20;1.97;;;19.90;72.80;;;;;;4993855;28;20468;-83
2023/11/01 02:37:50;;;;;;;2.17;1.93;;;19.90;72.70;;;;;;4990497;28;20568;-84
2023/11/01 02:40:23;;;;;;;2.70;2.50;;;19.90;72.90;;;;;;4990956;28;20941;-83
2023/11/01 02:42:55;;;;;;;1.97;1.80;;;19.90;72.80;;;;;;4986981;28;20438;-84
2023/11/01 02:45:25;;;;;;;2.20;2.10;;;19.90;72.90;;;;;;4993042;28;21062;-83
2023/11/01 02:48:05;;;;;;;2.17;1.83;;;19.90;72.80;;;;;;4991190;28;20935;-84
2023/11/01 02:50:33;;;;;;;2.13;2.03;;;19.90;72.70;;;;;;4988517;28;20492;-85
2023/11/01 02:53:04;;;;;;;1.70;1.60;;;19.90;73.20;;;;;;4999171;28;20527;-84
2023/11/01 02:55:36;;;;;;;2.33;2.13;;;19.90;73.10;;;;;;4984984;28;20470;-83
2023/11/01 02:58:05;;;;;;;2.27;2.00;;;19.90;73.10;;;;;;4980441;28;20474;-84
2023/11/01 03:00:36;;;;;;;2.10;2.00;;;19.90;73.30;;;;;;4988473;28;20578;-83
2023/11/01 03:03:06;;;;;;;2.07;1.87;;;19.90;73.10;;;;;;4991602;28;20460;-83
2023/11/01 03:05:34;;;;;;;2.03;1.83;;;19.90;73.30;;;;;;4994044;28;20552;-83
2023/11/01 03:08:02;;;;;;;1.90;1.80;;;19.90;73.30;;;;;;4994206;28;20445;-84
2023/11/01 03:10:31;;;;;;;2.27;2.03;;;19.90;73.20;;;;;;4990802;28;20456;-83
2023/11/01 03:13:02;;;;;;;2.00;1.80;;;19.90;73.40;;;;;;4992445;28;20441;-83
2023/11/01 03:15:32;;;;;;;1.73;1.63;;;19.90;73.40;;;;;;4993439;28;20477;-83
2023/11/01 03:18:02;;;;;;;2.17;2.07;;;19.90;73.30;;;;;;4985855;28;20485;-84
2023/11/01 03:20:31;;;;;;;2.47;2.27;;;19.90;73.40;;;;;;4994223;28;20432;-83
2023/11/01 03:23:04;;;;;;;1.70;1.60;;;19.90;73.20;;;;;;4993094;28;20460;-83
2023/11/01 03:25:32;;;;;;;2.47;2.10;;;19.80;73.20;;;;;;4990898;28;20480;-83
2023/11/01 03:28:02;;;;;;;1.80;1.70;;;19.80;73.50;;;;;;4986294;28;20417;-83
2023/11/01 03:30:31;;;;;;;1.93;1.83;;;19.90;73.60;;;;;;4987815;28;20450;-82
2023/11/01 03:33:07;;;;;;;2.10;2.00;;;19.90;73.40;;;;;;4992248;28;20510;-83
2023/11/01 03:35:41;;;;;;;2.50;2.40;;;19.90;73.60;;;;;;4989121;28;20468;-84
2023/11/01 03:38:23;;;;;;;3.77;2.10;;;19.80;73.40;;;;;;4985418;28;20461;-83
2023/11/01 03:41:09;;;;;;;2.87;2.67;;;19.80;73.40;;;;;;4983632;28;20446;-84
2023/11/01 03:44:02;;;;;;;2.50;2.40;;;19.80;73.70;;;;;;5003231;28;20956;-85
2023/11/01 03:47:40;;;;;;;5.60;2.17;;;19.90;73.20;;;;;;4985030;28;20467;-83
2023/11/01 03:50:09;;;;;;;2.17;1.97;;;19.90;73.70;;;;;;4991581;28;20442;-84
2023/11/01 03:52:41;;;;;;;2.03;1.90;;;19.80;73.50;;;;;;4986149;28;20984;-84
2023/11/01 03:55:11;;;;;;;2.70;2.50;;;19.80;73.50;;;;;;4985530;28;20461;-83
2023/11/01 03:57:43;;;;;;;2.40;2.20;;;19.80;73.60;;;;;;4996425;28;20449;-84
2023/11/01 04:00:21;;;;;;;2.33;2.23;;;19.80;73.40;;;;;;4992192;28;20472;-84
2023/11/01 04:02:50;;;;;;;3.80;2.00;;;19.80;73.40;;;;;;4992223;28;20465;-85
2023/11/01 04:05:19;;;;;;;2.27;2.17;;;19.80;73.80;;;;;;4999347;28;20523;-83
2023/11/01 04:07:55;;;;;;;2.40;2.20;;;19.80;73.40;;;;;;5000201;28;20457;-84
2023/11/01 04:10:24;;;;;;;2.73;2.53;;;19.80;73.50;;;;;;4990872;28;20411;-84
2023/11/01 04:13:01;;;;;;;2.13;2.03;;;19.80;73.60;;;;;;4999085;28;20445;-83
2023/11/01 04:15:38;;;;;;;6.00;2.07;;;19.80;73.90;;;;;;4993874;28;20493;-84
2023/11/01 04:18:12;;;;;;;2.20;2.10;;;19.80;73.50;;;;;;4996245;28;20591;-83
2023/11/01 04:20:55;;;;;;;2.70;2.50;;;19.80;73.80;;;;;;4984744;28;20477;-84
2023/11/01 04:23:28;;;;;;;3.07;2.20;;;19.80;73.80;;;;;;4999737;28;20451;-83
2023/11/01 04:26:06;;;;;;;2.30;2.13;;;19.80;73.60;;;;;;4998226;28;20473;-84
2023/11/01 04:28:36;;;;;;;4.10;2.50;;;19.70;73.60;;;;;;4998434;28;20468;-85
2023/11/01 04:31:09;;;;;;;2.30;2.20;;;19.70;73.90;;;;;;5001450;28;20429;-84
2023/11/01 04:33:43;;;;;;;1.90;1.80;;;19.70;73.60;;;;;;5002661;28;20508;-84
2023/11/01 04:36:13;;;;;;;2.40;2.23;;;19.80;74.20;;;;;;5002864;28;20476;-84
2023/11/01 04:38:42;;;;;;;2.30;2.10;;;19.80;73.70;;;;;;5013138;28;20445;-84
2023/11/01 04:41:11;;;;;;;2.40;2.20;;;19.70;73.80;;;;;;5002376;28;20449;-84
2023/11/01 04:43:39;;;;;;;2.53;2.33;;;19.70;73.70;;;;;;5009557;28;20420;-84
2023/11/01 04:46:09;;;;;;;2.47;2.37;;;19.70;73.60;;;;;;4998993;28;20468;-84
2023/11/01 04:48:37;;;;;;;2.80;2.17;;;19.70;73.80;;;;;;4999480;28;20449;-84
2023/11/01 04:51:06;;;;;;;2.20;2.10;;;19.70;74.00;;;;;;4994651;28;20473;-84
2023/11/01 04:53:35;;;;;;;2.20;2.10;;;19.70;73.90;;;;;;4995010;28;20483;-84
2023/11/01 04:56:05;;;;;;;2.43;2.33;;;19.70;73.80;;;;;;4996181;28;20595;-84
2023/11/01 04:58:35;;;;;;;2.00;1.90;;;19.70;73.90;;;;;;4996732;28;20500;-85
2023/11/01 05:01:05;;;;;;;3.07;2.30;;;19.70;74.00;;;;;;4994532;28;20525;-83
2023/11/01 05:03:37;;;;;;;2.63;2.43;;;19.70;74.10;;;;;;5002189;28;20515;-83
2023/11/01 05:06:11;;;;;;;2.60;2.40;;;19.70;73.90;;;;;;5000221;28;20550;-84
2023/11/01 05:08:39;;;;;;;2.30;2.10;;;19.70;74.20;;;;;;5001327;28;20451;-84
2023/11/01 05:11:08;;;;;;;2.40;2.30;;;19.70;73.80;;;;;;5004511;28;20445;-84
2023/11/01 05:13:37;;;;;;;2.60;2.50;;;19.70;74.00;;;;;;4999612;28;20448;-85
2023/11/01 05:16:09;;;;;;;2.30;2.20;;;19.70;74.00;;;;;;4995744;28;20536;-84
2023/11/01 05:18:42;;;;;;;2.20;2.10;;;19.70;74.50;;;;;;4995422;28;20449;-84
2023/11/01 05:21:13;;;;;;;2.27;2.17;;;19.80;74.30;;;;;;4996621;28;20551;-83
2023/11/01 05:23:45;;;;;;;2.50;2.33;;;19.80;73.90;;;;;;4998945;28;20449;-83
2023/11/01 05:26:15;;;;;;;2.70;2.50;;;19.80;73.90;;;;;;4994132;28;20473;-84
2023/11/01 05:28:44;;;;;;;2.60;2.40;;;19.70;74.20;;;;;;5007999;28;20498;-84
2023/11/01 05:31:17;;;;;;;2.53;2.33;;;19.70;74.00;;;;;;4998290;28;20442;-82
2023/11/01 05:33:50;;;;;;;2.40;2.30;;;19.70;74.00;;;;;;4999283;28;20449;-83
2023/11/01 05:36:26;;;;;;;2.80;2.53;;;19.70;74.30;;;;;;5002547;28;20450;-82
2023/11/01 05:38:57;;;;;;;2.70;2.50;;;19.70;74.10;;;;;;4988652;28;20517;-82
2023/11/01 05:41:25;;;;;;;2.30;2.20;;;19.70;74.50;;;;;;4994441;28;20509;-82
2023/11/01 05:43:58;;;;;;;2.27;2.17;;;19.70;74.20;;;;;;4995749;28;20445;-82
2023/11/01 05:46:27;;;;;;;2.43;2.23;;;19.70;74.00;;;;;;4989487;28;20469;-82
2023/11/01 05:49:09;;;;;;;2.37;2.27;;;19.70;74.30;;;;;;4999801;28;20445;-82
2023/11/01 05:51:41;;;;;;;2.37;2.27;;;19.70;74.20;;;;;;4992234;28;20488;-82
2023/11/01 05:54:09;;;;;;;2.40;2.20;;;19.70;74.40;;;;;;4994115;28;20453;-84
2023/11/01 05:56:40;;;;;;;2.30;2.20;;;19.70;74.50;;;;;;4990181;28;20543;-84
2023/11/01 05:59:09;;;;;;;2.73;2.53;;;19.70;74.20;;;;;;4994187;28;20460;-83
2023/11/01 06:01:42;;;;;;;2.80;2.60;;;19.70;74.20;;;;;;4993191;28;20473;-82
2023/11/01 06:04:15;;;;;;;2.43;2.33;;;19.70;74.20;;;;;;4981436;28;20995;-82
2023/11/01 06:06:43;;;;;;;2.80;2.60;;;19.70;74.30;;;;;;4995104;28;20465;-82
2023/11/01 06:09:16;;;;;;;2.57;2.37;;;19.70;74.20;;;;;;4989397;28;20454;-82
2023/11/01 06:11:44;;;;;;;3.13;2.87;;;19.70;74.00;;;;;;5002759;28;20873;-82
2023/11/01 06:14:13;;;;;;;2.83;2.63;;;19.70;74.10;;;;;;4997764;28;20453;-82
2023/11/01 06:16:41;;;;;;;2.73;2.63;;;19.70;74.00;;;;;;4985972;28;20473;-83
2023/11/01 06:19:09;;;;;;;3.03;2.80;;;19.70;74.30;;;;;;4988644;28;20443;-81
2023/11/01 06:21:40;;;;;;;4.77;3.03;;;19.70;74.00;;;;;;4995217;28;20509;-83
2023/11/01 06:24:09;;;;;;;3.40;3.10;;;19.70;74.20;;;;;;4995343;28;20480;-83
2023/11/01 06:26:37;;;;;;;3.03;2.83;;;19.70;74.50;;;;;;4999173;28;20527;-83
2023/11/01 06:29:05;;;;;;;3.90;3.40;;;19.70;74.00;;;;;;4991856;28;20445;-84
2023/11/01 06:31:34;;;;;;;4.83;3.40;;;19.70;74.30;;;;;;4992078;28;20493;-84
2023/11/01 06:34:04;;;;;;;4.50;3.70;;;19.70;74.30;;;;;;4984215;28;20581;-83
2023/11/01 06:36:32;;;;;;;4.53;4.13;;;19.70;74.50;;;;;;4987987;28;20531;-84
2023/11/01 06:39:02;;;;;;;4.20;3.80;;;19.70;74.30;;;;;;4986328;28;20480;-82
2023/11/01 06:41:30;;;;;;;6.37;4.27;;;19.70;74.20;;;;;;4996212;28;20500;-84
2023/11/01 06:43:59;;;;;;;5.37;4.60;;;19.70;74.60;;;;;;4993530;28;20457;-83
2023/11/01 06:46:28;;;;;;;4.60;4.20;;;19.70;73.90;;;;;;5002646;28;20473;-85
2023/11/01 06:48:56;;;;;;;5.10;4.40;;;19.70;74.60;;;;;;4996671;28;20461;-85
2023/11/01 06:51:24;;;;;;;6.80;5.20;;;19.70;74.50;;;;;;4984512;28;20465;-84
2023/11/01 06:53:52;;;;;;;4.90;4.50;;;19.70;74.20;;;;;;4989209;28;20489;-81
2023/11/01 06:56:22;;;;;;;5.23;4.47;;;19.70;74.50;;;;;;4995408;28;20477;-83
2023/11/01 06:59:01;;;;;;;5.70;4.90;;;19.70;74.30;;;;;;4994482;28;20449;-84
2023/11/01 07:01:31;;;;;;;6.37;5.30;;;19.70;74.30;;;;;;4987931;28;20470;-84
2023/11/01 07:03:59;;;;;;;6.10;5.10;;;19.70;74.60;;;;;;4994726;28;20524;-85
2023/11/01 07:06:27;;;;;;;7.60;5.40;;;19.80;74.60;;;;;;4993600;28;20490;-84
2023/11/01 07:08:56;;;;;;;6.27;5.10;;;19.80;74.30;;;;;;4994852;28;20428;-84
2023/11/01 07:11:25;;;;;;;6.13;5.37;;;19.80;74.30;;;;;;4994945;28;20445;-84
2023/11/01 07:13:54;;;;;;;6.50;5.53;;;19.90;74.10;;;;;;4988534;28;20449;-84
2023/11/01 07:16:22;;;;;;;5.80;5.10;;;19.80;74.20;;;;;;4996364;28;20453;-85
2023/11/01 07:18:51;;;;;;;6.67;5.40;;;19.80;74.30;;;;;;4991229;28;20453;-84
2023/11/01 07:21:19;;;;;;;6.70;5.60;;;19.90;74.10;;;;;;4998344;28;20472;-84
2023/11/01 07:23:47;;;;;;;7.00;5.80;;;19.80;74.30;;;;;;4996894;28;20484;-84
2023/11/01 07:26:23;;;;;;;6.87;5.60;;;19.90;74.10;;;;;;4986680;28;20525;-83
2023/11/01 07:28:59;;;;;;;8.53;5.80;;;19.80;73.70;;;;;;4979782;28;20947;-86
2023/11/01 07:31:28;;;;;;;6.13;5.40;;;19.80;73.90;;;;;;4975279;28;20501;-85
2023/11/01 07:33:56;;;;;;;10.87;6.27;;;19.80;74.10;;;;;;4998619;28;20454;-86
2023/11/01 07:36:24;;;;;;;9.23;5.80;;;19.80;74.20;;;;;;4997707;28;20959;-86
2023/11/01 07:38:52;;;;;;;6.50;5.33;;;19.80;74.20;;;;;;4991368;28;20457;-85
2023/11/01 07:41:20;;;;;;;7.20;5.90;;;19.90;74.20;;;;;;4996743;28;20473;-83
2023/11/01 07:43:49;;;;;;;6.50;5.20;;;19.90;74.00;;;;;;4995400;28;20533;-85
2023/11/01 07:46:18;;;;;;;6.70;5.93;;;19.90;73.90;;;;;;4995425;28;20469;-87
2023/11/01 07:48:47;;;;;;;6.73;5.60;;;20.00;74.00;;;;;;4991585;28;20456;-86
2023/11/01 07:51:15;;;;;;;8.73;6.53;;;20.00;73.70;;;;;;4991841;28;20507;-87
2023/11/01 07:53:44;;;;;;;8.40;5.83;;;20.00;73.90;;;;;;4988855;28;20454;-87
2023/11/01 07:56:12;;;;;;;7.90;6.00;;;20.00;73.80;;;;;;4995919;28;20460;-87
2023/11/01 07:58:41;;;;;;;8.30;5.90;;;20.00;73.60;;;;;;4984466;28;20494;-86
2023/11/01 08:01:11;;;;;;;7.47;6.23;;;20.00;74.10;;;;;;4991899;28;20469;-87
2023/11/01 08:03:43;;;;;;;6.67;5.90;;;20.00;73.90;;;;;;4984732;28;20457;-87
2023/11/01 08:06:12;;;;;;;11.10;6.20;;;20.00;73.70;;;;;;4977924;28;20549;-85
2023/11/01 08:08:44;;;;;;;6.80;5.37;;;20.00;73.70;;;;;;4986738;28;20450;-84
2023/11/01 08:11:16;;;;;;;8.03;5.90;;;20.10;73.70;;;;;;4987630;28;20453;-85
2023/11/01 08:13:44;;;;;;;6.77;5.70;;;20.10;73.80;;;;;;4991427;28;20493;-86
2023/11/01 08:16:19;;;;;;;7.83;6.33;;;20.10;73.50;;;;;;4988016;28;20476;-86
2023/11/01 08:18:54;;;;;;;8.87;5.50;;;20.10;73.50;;;;;;4985843;28;20545;-88
2023/11/01 08:21:51;;;;;;;5.43;4.93;;;20.20;73.40;;;;;;4989394;28;20470;-87
2023/11/01 08:24:40;;;;;;;6.97;5.03;;;20.20;73.40;;;;;;4993870;28;20477;-86
2023/11/01 08:27:33;;;;;;;7.20;5.47;;;20.20;73.60;;;;;;4997785;28;20432;-86
2023/11/01 08:30:04;;;;;;;8.83;5.13;;;20.20;73.20;;;;;;4994984;28;20441;-85
2023/11/01 08:33:01;;;;;;;5.20;4.70;;;20.20;73.30;;;;;;4987777;28;20433;-86
2023/11/01 08:35:46;;;;;;;6.70;5.30;;;20.20;73.40;;;;;;4985505;28;20485;-85
2023/11/01 08:38:34;;;;;;;7.73;5.47;;;20.20;73.50;;;;;;4982506;28;20829;-85
2023/11/01 08:41:19;;;;;;;7.50;5.57;;;20.10;73.10;;;;;;4988627;28;20465;-81
2023/11/01 08:44:18;;;;;;;8.53;6.17;;;20.10;72.90;;;;;;4987007;28;20540;-82
2023/11/01 08:46:55;;;;;;;7.70;5.77;;;20.10;72.70;;;;;;4986059;28;20462;-83
2023/11/01 08:49:29;;;;;;;10.53;5.67;;;20.10;72.40;;;;;;4995154;28;20449;-80
2023/11/01 08:51:58;;;;;;;6.30;5.70;;;20.10;72.60;;;;;;4992520;28;20480;-81
2023/11/01 08:54:26;;;;;;;8.73;4.90;;;20.10;72.60;;;;;;5001874;28;20479;-81
2023/11/01 08:56:55;;;;;;;6.87;5.90;;;20.10;73.40;;;;;;4990960;28;20528;-81
2023/11/01 08:59:23;;;;;;;5.30;4.80;;;20.20;72.70;;;;;;5000286;28;20444;-82
2023/11/01 09:01:52;;;;;;;6.03;5.40;;;20.20;72.60;;;;;;4999387;28;20500;-82
2023/11/01 09:04:34;;;;;;;5.03;4.43;;;20.20;72.70;;;;;;4999278;28;20508;-80
2023/11/01 09:07:04;;;;;;;8.70;5.77;;;20.20;72.70;;;;;;5002121;28;20415;-80
2023/11/01 09:09:32;;;;;;;5.50;4.90;;;20.20;72.70;;;;;;4995964;28;20475;-82
2023/11/01 09:12:00;;;;;;;5.87;4.90;;;20.20;72.90;;;;;;4993111;28;20438;-82
2023/11/01 09:14:28;;;;;;;6.30;4.63;;;20.20;72.80;;;;;;4994722;28;20446;-80
2023/11/01 09:16:56;;;;;;;5.57;4.90;;;20.20;73.00;;;;;;4998539;28;20469;-80
2023/11/01 09:19:24;;;;;;;5.43;4.17;;;20.20;72.80;;;;;;4997893;28;20453;-81
2023/11/01 09:21:52;;;;;;;10.33;4.73;;;20.20;73.00;;;;;;4992655;28;20547;-80
2023/11/01 09:24:22;;;;;;;5.33;4.83;;;20.20;73.10;;;;;;4996268;28;20936;-81
2023/11/01 09:26:51;;;;;;;7.47;5.10;;;20.20;73.30;;;;;;4993024;28;20469;-81
2023/11/01 09:29:21;;;;;;;5.20;4.70;;;20.20;73.30;;;;;;4997435;28;20578;-81
2023/11/01 09:31:50;;;;;;;5.00;4.50;;;20.30;73.00;;;;;;4994207;28;20496;-80
2023/11/01 09:34:19;;;;;;;6.37;4.80;;;20.30;73.10;;;;;;5005008;28;20553;-82
2023/11/01 09:36:47;;;;;;;4.77;4.30;;;20.20;73.00;;;;;;5004833;28;20449;-81
2023/11/01 09:39:17;;;;;;;4.60;4.20;;;20.20;73.20;;;;;;4994801;28;20473;-82
2023/11/01 09:41:50;;;;;;;7.40;4.60;;;20.20;73.20;;;;;;4989101;28;20481;-82
2023/11/01 09:44:18;;;;;;;6.10;4.70;;;20.20;73.40;;;;;;4995354;28;20449;-81
2023/11/01 09:46:47;;;;;;;4.43;3.83;;;20.30;73.20;;;;;;4999580;28;20496;-80
2023/11/01 09:49:15;;;;;;;5.20;4.53;;;20.30;73.50;;;;;;5000666;28;20452;-81
2023/11/01 09:51:44;;;;;;;5.40;4.10;;;20.30;73.30;;;;;;4999407;28;20445;-81
2023/11/01 09:54:12;;;;;;;4.70;4.37;;;20.30;73.40;;;;;;4999560;28;20445;-82
2023/11/01 09:56:42;;;;;;;4.33;4.03;;;20.30;73.30;;;;;;4999237;28;20525;-82
2023/11/01 09:59:12;;;;;;;4.00;3.70;;;20.30;73.40;;;;;;5001998;28;20424;-82
2023/11/01 10:01:40;;;;;;;4.77;4.27;;;20.30;73.30;;;;;;5000065;28;20434;-79
2023/11/01 10:04:09;;;;;;;6.00;4.30;;;20.20;73.30;;;;;;4998490;28;20457;-81
2023/11/01 10:06:37;;;;;;;4.60;4.20;;;20.30;73.30;;;;;;5002468;28;20473;-80
2023/11/01 10:09:06;;;;;;;4.10;3.80;;;20.20;73.60;;;;;;4993378;28;20488;-81
2023/11/01 10:11:34;;;;;;;4.27;3.93;;;20.30;73.40;;;;;;4996646;28;20473;-82
2023/11/01 10:14:02;;;;;;;4.67;4.17;;;20.30;73.50;;;;;;5001055;28;20453;-82
2023/11/01 10:16:32;;;;;;;3.90;3.60;;;20.30;73.60;;;;;;4988823;28;20479;-81
2023/11/01 10:19:00;;;;;;;4.40;4.10;;;20.30;73.30;;;;;;4992280;28;20480;-81
2023/11/01 10:21:31;;;;;;;4.07;3.77;;;20.30;73.30;;;;;;4992640;28;20441;-81
2023/11/01 10:24:00;;;;;;;4.37;3.63;;;20.30;73.40;;;;;;4994336;28;20523;-81
2023/11/01 10:26:29;;;;;;;3.70;3.50;;;20.30;73.40;;;;;;4998804;28;20479;-81
2023/11/01 10:28:58;;;;;;;3.73;3.43;;;20.30;73.50;;;;;;4983576;28;20442;-81
2023/11/01 10:31:26;;;;;;;7.23;3.57;;;20.40;73.50;;;;;;4983637;28;20418;-82
2023/11/01 10:33:56;;;;;;;3.80;3.50;;;20.30;73.60;;;;;;4981969;28;20442;-83
2023/11/01 10:36:24;;;;;;;3.40;3.20;;;20.40;73.40;;;;;;4983942;28;20473;-81
2023/11/01 10:38:52;;;;;;;5.30;3.33;;;20.40;73.30;;;;;;5001676;28;20473;-81
2023/11/01 10:41:20;;;;;;;3.60;3.30;;;20.40;73.40;;;;;;4997158;28;20450;-81
2023/11/01 10:43:49;;;;;;;3.43;3.23;;;20.40;73.50;;;;;;5001803;28;20465;-82
2023/11/01 10:46:17;;;;;;;2.80;2.70;;;20.40;73.70;;;;;;5001896;28;20479;-83
2023/11/01 10:48:45;;;;;;;3.70;3.40;;;20.40;73.50;;;;;;5002461;28;20468;-81
2023/11/01 10:51:15;;;;;;;3.63;3.10;;;20.40;73.60;;;;;;4997346;28;20514;-83
2023/11/01 10:53:43;;;;;;;3.53;3.33;;;20.40;73.40;;;;;;5003543;28;20492;-82
2023/11/01 10:56:11;;;;;;;4.43;3.30;;;20.40;73.50;;;;;;5003042;28;20552;-83
2023/11/01 10:58:43;;;;;;;2.70;2.60;;;20.50;73.60;;;;;;5002176;28;20501;-81
2023/11/01 11:01:13;;;;;;;2.90;2.80;;;20.50;74.00;;;;;;4993842;28;20439;-82
2023/11/01 11:03:44;;;;;;;3.50;2.90;;;20.50;73.60;;;;;;4978953;28;20498;-81
2023/11/01 11:06:16;;;;;;;2.57;2.47;;;20.50;73.90;;;;;;4979369;28;20472;-82
2023/11/01 11:08:45;;;;;;;3.43;3.03;;;20.50;73.70;;;;;;4987446;28;20438;-83
2023/11/01 11:11:16;;;;;;;2.73;2.53;;;20.50;73.60;;;;;;4979366;28;20446;-82
2023/11/01 11:13:46;;;;;;;3.07;2.83;;;20.60;73.60;;;;;;4982796;28;20460;-81
2023/11/01 11:16:18;;;;;;;3.30;3.00;;;20.60;73.80;;;;;;4991573;28;20535;-80
2023/11/01 11:18:59;;;;;;;3.20;2.90;;;20.70;73.70;;;;;;4990481;28;20429;-82
2023/11/01 11:22:05;;;;;;;3.90;3.07;;;20.80;73.60;;;;;;4987805;28;20442;-81
2023/11/01 11:24:46;;;;;;;3.30;2.43;;;20.80;73.90;;;;;;4980127;28;20544;-83
2023/11/01 11:27:54;;;;;;;3.97;2.90;;;20.80;73.80;;;;;;4997972;28;20531;-82
2023/11/01 11:31:07;;;;;;;3.13;2.80;;;20.80;73.60;;;;;;4985528;28;20446;-83
2023/11/01 11:33:37;;;;;;;4.63;3.10;;;20.80;73.90;;;;;;4995320;28;20456;-81
2023/11/01 11:36:14;;;;;;;4.60;2.70;;;20.70;73.60;;;;;;4978602;28;20451;-82
2023/11/01 11:38:52;;;;;;;4.70;2.63;;;20.80;73.60;;;;;;4999517;28;20484;-82
2023/11/01 11:41:21;;;;;;;5.10;2.97;;;20.80;73.70;;;;;;4978538;28;20473;-83
2023/11/01 11:44:06;;;;;;;2.53;2.30;;;20.80;73.80;;;;;;4982042;28;20546;-82
2023/11/01 11:46:38;;;;;;;4.90;3.00;;;20.80;73.90;;;;;;4982513;28;20598;-82
2023/11/01 11:49:07;;;;;;;5.40;3.00;;;20.70;73.80;;;;;;4985819;28;20439;-83
2023/11/01 11:51:35;;;;;;;2.50;2.40;;;20.70;73.90;;;;;;4984375;28;20966;-82
2023/11/01 11:54:11;;;;;;;7.50;2.70;;;20.80;74.10;;;;;;4984742;28;20551;-81
2023/11/01 11:56:40;;;;;;;5.47;3.00;;;20.80;74.20;;;;;;4990539;28;20478;-81
2023/11/01 11:59:09;;;;;;;2.40;2.30;;;20.80;74.00;;;;;;4987876;28;20446;-82
2023/11/01 12:01:36;;;;;;;4.43;2.60;;;20.80;74.30;;;;;;4982805;28;20430;-82
2023/11/01 12:04:05;;;;;;;2.97;2.60;;;20.80;74.30;;;;;;4988874;28;20989;-83
2023/11/01 12:06:41;;;;;;;2.90;2.70;;;20.80;74.20;;;;;;4992105;28;20460;-82
2023/11/01 12:09:17;;;;;;;2.60;2.40;;;20.90;74.20;;;;;;4995189;28;20437;-83
2023/11/01 12:11:46;;;;;;;2.87;2.47;;;20.90;74.10;;;;;;4990027;28;20433;-84
2023/11/01 12:14:30;;;;;;;5.43;2.97;;;20.90;73.90;;;;;;4988674;28;20446;-84
2023/11/01 12:17:03;;;;;;;2.70;2.50;;;20.90;74.10;;;;;;4987015;28;20920;-83
2023/11/01 12:19:32;;;;;;;2.87;2.67;;;20.90;74.20;;;;;;4992520;28;20468;-85
2023/11/01 12:22:01;;;;;;;2.60;2.40;;;20.90;74.50;;;;;;4993086;28;20412;-84
2023/11/01 12:24:44;;;;;;;2.70;2.10;;;20.90;74.20;;;;;;4996109;28;20443;-84
2023/11/01 12:27:14;;;;;;;4.57;2.60;;;21.00;74.30;;;;;;4997874;28;20416;-83
2023/11/01 12:29:43;;;;;;;2.93;2.43;;;21.10;74.10;;;;;;4995434;28;20442;-83
2023/11/01 12:32:13;;;;;;;6.40;2.80;;;21.10;74.10;;;;;;5000524;28;20549;-82
2023/11/01 12:35:03;;;;;;;7.43;3.17;;;21.20;74.00;;;;;;5000769;28;20461;-82
2023/11/01 12:37:31;;;;;;;6.77;2.97;;;21.20;73.90;;;;;;5000122;28;20450;-83
2023/11/01 12:40:04;;;;;;;3.50;2.80;;;21.20;73.80;;;;;;4994985;28;20446;-82
2023/11/01 12:42:33;;;;;;;3.50;2.60;;;21.20;73.60;;;;;;4997227;28;20448;-83
2023/11/01 12:45:03;;;;;;;3.27;2.87;;;21.20;73.70;;;;;;5000085;28;20474;-83
2023/11/01 12:47:40;;;;;;;3.07;2.77;;;21.20;73.80;;;;;;5006849;28;20448;-82
2023/11/01 12:50:09;;;;;;;2.87;2.67;;;21.30;74.00;;;;;;5006802;28;20449;-83
2023/11/01 12:52:37;;;;;;;4.87;2.90;;;21.40;73.90;;;;;;5004291;28;20453;-82
2023/11/01 12:55:09;;;;;;;4.70;3.07;;;21.50;74.00;;;;;;5002149;28;20517;-82
2023/11/01 12:57:38;;;;;;;6.90;3.47;;;21.50;73.50;;;;;;5007558;28;20436;-83
2023/11/01 13:00:08;;;;;;;4.47;3.23;;;21.60;73.40;;;;;;5003348;28;20450;-82
2023/11/01 13:02:36;;;;;;;3.40;3.10;;;21.60;73.10;;;;;;4997766;28;20444;-82
2023/11/01 13:05:05;;;;;;;6.00;3.30;;;21.60;73.30;;;;;;4997197;28;20520;-82
2023/11/01 13:07:34;;;;;;;3.83;2.97;;;21.60;73.10;;;;;;4990297;28;20505;-82
2023/11/01 13:10:02;;;;;;;5.03;3.40;;;21.60;73.40;;;;;;4991643;28;20479;-81
2023/11/01 13:12:32;;;;;;;5.83;3.50;;;21.60;73.40;;;;;;4994614;28;20446;-83